Bookmark and Share
Track history (hours):
 

Continental Highway

Last reported at 2014-Apr-20 00:25 UTC. Time now 2014-Apr-24 06:16 UTC.
Position N 35°05' E 140°42'.

Length 199.9 m; beam 32.2 m.

Type: Cargo ship. MMSI: 351223000.

NotesDate/timePositionNaut miles runAvg speedWind from/ knotsBaromVisibWave heightAir tempDewpointWater temp
2014-Apr-20 00:25N 35°05' E 140°42'1614.7
2014-Apr-19 23:19N 34°55' E 140°27'1215.2
2014-Apr-19 22:33N 34°50' E 140°14'1515.0
2014-Apr-19 21:33N 34°41' E 139°59'1514.6
2014-Apr-19 20:30N 34°35' E 139°42'6114.6
2014-Apr-19 16:21N 34°26' E 138°29'  
2014-Apr-12 06:03N 24°41' E 119°46'918.6
2014-Apr-12 05:33N 24°36' E 119°37'1817.9
2014-Apr-12 04:33N 24°25' E 119°22'1616.4
2014-Apr-12 03:33N 24°13' E 119°11'1716.7
2014-Apr-12 02:33N 24°03' E 118°56'1616.5
2014-Apr-12 01:33N 23°51' E 118°43'1716.9
2014-Apr-12 00:33N 23°40' E 118°28'1717.0
2014-Apr-11 23:33N 23°30' E 118°14'1717.4
2014-Apr-11 22:33N 23°20' E 117°59'1717.0
2014-Apr-11 21:33N 23°10' E 117°44'1616.2
2014-Apr-11 20:33N 23°01' E 117°29'1616.2
2014-Apr-11 19:33N 22°51' E 117°15'1615.9
2014-Apr-11 18:33N 22°42' E 117°01'1616.0
2014-Apr-11 17:33N 22°38' E 116°44'1615.9
2014-Apr-11 16:33N 22°34' E 116°27'1716.3
2014-Apr-11 15:31N 22°29' E 116°10'1716.5
2014-Apr-11 14:28N 22°25' E 115°52'9415.1
2014-Apr-11 08:13N 22°10' E 114°11'1 0.1
2014-Apr-11 01:16N 22°10' E 114°10'0 0.0
2014-Apr-11 00:04N 22°10' E 114°10'0 0.0
2014-Apr-10 22:28N 22°10' E 114°10'0 0.0
2014-Apr-10 20:04N 22°10' E 114°10'0 0.0
2014-Apr-10 19:22N 22°10' E 114°10'2 2.0
2014-Apr-10 18:31N 22°09' E 114°09'1111.7
2014-Apr-10 17:33N 22°07' E 113°57'9 9.3
2014-Apr-10 16:33N 22°10' E 113°47'1514.5
2014-Apr-10 15:33N 22°24' E 113°46'1413.6
2014-Apr-10 14:33N 22°37' E 113°42'1110.9
2014-Apr-10 13:33N 22°47' E 113°37'10 9.7
2014-Apr-10 12:33N 22°56' E 113°33'5 4.1
2014-Apr-10 11:25N 23°01' E 113°32'0 0.0
2014-Apr-10 10:31N 23°01' E 113°32'0 0.0
2014-Apr-10 09:25N 23°01' E 113°32'0 0.0
2014-Apr-10 08:31N 23°01' E 113°32'0 0.0
2014-Apr-10 07:25N 23°01' E 113°32'0 0.0
2014-Apr-10 06:31N 23°01' E 113°32'0 0.0
2014-Apr-10 05:31N 23°01' E 113°32'0 0.0
2014-Apr-10 04:31N 23°01' E 113°32'0 0.1
2014-Apr-10 03:33N 23°01' E 113°32'7 7.4
2014-Apr-10 02:33N 22°54' E 113°34'1010.3
2014-Apr-10 01:33N 22°44' E 113°39'1211.8
2014-Apr-10 00:33N 22°33' E 113°44'  

Dump ship's entire track history

sailing weather and tide predictions

Continental Highway — H9LY — position and weather